Time;durP1;ratioP1;P1;durP2;ratioP2;P2;SDS_P1;SDS_P2;PMS_P1;PMS_P2;Temp;Humidity;BMP_temperature;BMP_pressure;BME280_temperature;BME280_humidity;BME280_pressure;Samples;Min_cycle;Max_cycle;Signal;HPM_P1;HPM_P2
2021/01/01 00:01:43;;;;;;;15.82;12.23;;;4.40;99.90;;;;;;5071582;28;20020;-61
2021/01/01 00:04:09;;;;;;;17.92;12.07;;;4.40;99.90;;;;;;5071533;28;20110;-61
2021/01/01 00:06:36;;;;;;;19.77;12.43;;;4.50;99.90;;;;;;5074053;28;20040;-61
2021/01/01 00:09:03;;;;;;;17.38;10.60;;;4.50;99.90;;;;;;5075509;28;20467;-61
2021/01/01 00:11:29;;;;;;;12.57;9.23;;;4.50;99.90;;;;;;5076053;28;20321;-62
2021/01/01 00:13:54;;;;;;;17.15;11.32;;;4.50;99.90;;;;;;5073885;28;20108;-63
2021/01/01 00:16:20;;;;;;;11.90;9.05;;;4.70;99.90;;;;;;5075502;28;20020;-61
2021/01/01 00:18:47;;;;;;;28.63;20.23;;;4.70;99.90;;;;;;5075224;28;20465;-59
2021/01/01 00:21:13;;;;;;;18.45;12.52;;;4.70;99.90;;;;;;5074147;28;20166;-61
2021/01/01 00:23:38;;;;;;;15.23;10.23;;;4.50;99.90;;;;;;5074961;28;20494;-62
2021/01/01 00:26:15;;;;;;;15.93;11.10;;;4.50;99.90;;;;;;5074783;28;20025;-60
2021/01/01 00:28:42;;;;;;;15.57;9.27;;;4.50;99.90;;;;;;5075161;28;20063;-61
2021/01/01 00:31:13;;;;;;;16.55;10.68;;;4.70;99.90;;;;;;5073333;28;20108;-60
2021/01/01 00:33:38;;;;;;;14.65;10.13;;;4.60;99.90;;;;;;5075242;28;20063;-60
2021/01/01 00:36:04;;;;;;;17.23;10.40;;;4.60;99.90;;;;;;5074335;28;20024;-59
2021/01/01 00:38:30;;;;;;;17.35;11.77;;;4.50;99.90;;;;;;5074878;28;20028;-61
2021/01/01 00:40:56;;;;;;;18.67;12.02;;;4.40;99.90;;;;;;5074535;28;20089;-61
2021/01/01 00:43:21;;;;;;;20.10;12.07;;;4.40;99.90;;;;;;5074153;28;20028;-64
2021/01/01 00:45:47;;;;;;;16.83;11.38;;;4.50;99.90;;;;;;5073671;28;20052;-62
2021/01/01 00:48:13;;;;;;;19.83;12.15;;;4.60;99.90;;;;;;5073650;28;20052;-73
2021/01/01 00:50:38;;;;;;;16.77;12.30;;;4.60;99.90;;;;;;5074243;28;20066;-61
2021/01/01 00:53:04;;;;;;;16.13;11.50;;;4.60;99.90;;;;;;5074673;28;20472;-59
2021/01/01 00:55:30;;;;;;;19.30;12.15;;;4.50;99.90;;;;;;5073876;28;20028;-60
2021/01/01 00:57:56;;;;;;;18.73;12.30;;;4.50;99.90;;;;;;5073032;28;20028;-59
2021/01/01 01:00:22;;;;;;;16.83;12.75;;;4.40;99.90;;;;;;5073395;28;20021;-59
2021/01/01 01:02:47;;;;;;;19.45;12.48;;;4.50;99.90;;;;;;5074374;28;20138;-59
2021/01/01 01:05:13;;;;;;;20.27;13.27;;;4.60;99.90;;;;;;5074419;28;20024;-61
2021/01/01 01:07:39;;;;;;;20.52;13.93;;;4.60;99.90;;;;;;5074508;28;20370;-65
2021/01/01 01:10:05;;;;;;;21.40;14.13;;;4.60;99.90;;;;;;5074084;28;20111;-62
2021/01/01 01:12:31;;;;;;;23.95;15.52;;;4.60;99.90;;;;;;5074750;28;20047;-59
2021/01/01 01:14:57;;;;;;;19.95;13.68;;;4.50;99.90;;;;;;5073432;28;20402;-63
2021/01/01 01:17:22;;;;;;;19.23;12.65;;;4.40;99.90;;;;;;5074544;28;20035;-63
2021/01/01 01:19:48;;;;;;;20.40;13.57;;;4.40;99.90;;;;;;5073980;28;20028;-60
2021/01/01 01:22:14;;;;;;;19.38;12.45;;;4.40;99.90;;;;;;5074399;28;20367;-62
2021/01/01 01:24:40;;;;;;;26.00;13.80;;;4.40;99.90;;;;;;5055799;28;20097;-59
2021/01/01 01:27:06;;;;;;;19.55;13.23;;;4.40;99.90;;;;;;5072892;28;20029;-61
2021/01/01 01:29:31;;;;;;;17.60;11.63;;;4.50;99.90;;;;;;5073826;28;20021;-60
2021/01/01 01:31:57;;;;;;;19.95;11.68;;;4.60;99.90;;;;;;5072750;28;20063;-59
2021/01/01 01:34:22;;;;;;;17.60;11.45;;;4.70;99.90;;;;;;5073554;28;20074;-61
2021/01/01 01:36:49;;;;;;;16.75;10.90;;;4.70;99.90;;;;;;5072891;28;20477;-66
2021/01/01 01:39:15;;;;;;;21.50;13.38;;;4.60;99.90;;;;;;5073907;28;20484;-61
2021/01/01 01:41:41;;;;;;;24.35;16.17;;;4.60;99.90;;;;;;5073486;28;20103;-59
2021/01/01 01:44:07;;;;;;;18.45;12.25;;;4.60;99.90;;;;;;5071939;28;20496;-60
2021/01/01 01:46:42;;;;;;;15.52;10.68;;;4.50;99.90;;;;;;5071738;28;20304;-60
2021/01/01 01:49:11;;;;;;;21.05;11.57;;;4.50;99.90;;;;;;5071517;28;20077;-65
2021/01/01 01:51:38;;;;;;;17.45;11.88;;;4.60;99.90;;;;;;5073416;28;20056;-60
2021/01/01 01:54:05;;;;;;;16.60;11.10;;;4.60;99.90;;;;;;5071363;28;20043;-60
2021/01/01 01:56:33;;;;;;;17.08;11.35;;;4.60;99.90;;;;;;5071896;28;20070;-61
2021/01/01 01:58:59;;;;;;;15.38;10.25;;;4.40;99.90;;;;;;5072679;28;20013;-60
2021/01/01 02:01:26;;;;;;;15.35;10.00;;;4.30;99.90;;;;;;5071741;28;20449;-63
2021/01/01 02:03:52;;;;;;;17.77;11.20;;;4.10;99.90;;;;;;5071097;28;20469;-60
2021/01/01 02:06:18;;;;;;;26.85;17.80;;;4.10;99.90;;;;;;5071842;28;20020;-60
2021/01/01 02:08:44;;;;;;;18.00;10.90;;;4.10;99.90;;;;;;5071867;28;20116;-61
2021/01/01 02:11:10;;;;;;;12.77;9.00;;;4.20;99.90;;;;;;5071405;28;20524;-60
2021/01/01 02:13:37;;;;;;;16.02;9.88;;;4.30;99.90;;;;;;5073660;28;20033;-61
2021/01/01 02:16:04;;;;;;;16.20;10.07;;;4.30;99.90;;;;;;5074882;28;20031;-58
2021/01/01 02:18:37;;;;;;;14.75;9.32;;;4.20;99.90;;;;;;5075841;28;20496;-62
2021/01/01 02:21:04;;;;;;;15.32;10.65;;;4.30;99.90;;;;;;5075385;28;20016;-61
2021/01/01 02:23:30;;;;;;;20.73;11.80;;;4.20;99.90;;;;;;5075602;28;20075;-66
2021/01/01 02:25:56;;;;;;;16.38;9.60;;;4.20;99.90;;;;;;5072822;28;20417;-62
2021/01/01 02:28:22;;;;;;;15.93;10.07;;;4.30;99.90;;;;;;5072710;28;20029;-60
2021/01/01 02:30:49;;;;;;;14.02;9.40;;;4.20;99.90;;;;;;5072704;28;20012;-61
2021/01/01 02:33:15;;;;;;;13.88;9.00;;;4.20;99.90;;;;;;5072120;28;20020;-61
2021/01/01 02:35:40;;;;;;;14.57;8.90;;;4.20;99.90;;;;;;5071873;28;20020;-58
2021/01/01 02:38:06;;;;;;;13.48;8.93;;;4.20;99.90;;;;;;5071161;28;20035;-63
2021/01/01 02:40:31;;;;;;;16.05;9.18;;;4.30;99.90;;;;;;5071846;28;20052;-59
2021/01/01 02:42:57;;;;;;;12.25;8.32;;;4.30;99.90;;;;;;5072649;28;20016;-59
2021/01/01 02:45:23;;;;;;;12.82;9.13;;;4.40;99.90;;;;;;5072692;28;20024;-59
2021/01/01 02:47:49;;;;;;;13.98;8.63;;;4.40;99.90;;;;;;5071361;28;20079;-60
2021/01/01 02:50:17;;;;;;;12.15;8.07;;;4.40;99.90;;;;;;5070849;28;20040;-58
2021/01/01 02:52:45;;;;;;;13.82;8.57;;;4.50;99.90;;;;;;5072452;28;20017;-60
2021/01/01 02:55:11;;;;;;;13.85;8.80;;;4.30;99.90;;;;;;5072258;28;20028;-59
2021/01/01 02:57:37;;;;;;;15.77;8.82;;;4.30;99.90;;;;;;5071567;28;20032;-60
2021/01/01 03:00:05;;;;;;;15.40;9.73;;;4.40;99.90;;;;;;5072198;28;20050;-58
2021/01/01 03:02:31;;;;;;;15.80;9.07;;;4.30;99.90;;;;;;5072803;28;20024;-59
2021/01/01 03:04:57;;;;;;;16.42;9.48;;;4.50;99.90;;;;;;5053892;28;20437;-72
2021/01/01 03:07:23;;;;;;;16.52;10.10;;;4.40;99.90;;;;;;5064981;28;20032;-59
2021/01/01 03:09:48;;;;;;;16.42;8.85;;;4.20;99.90;;;;;;5053833;28;20471;-58
2021/01/01 03:12:14;;;;;;;13.80;8.88;;;4.30;99.90;;;;;;5054118;28;20278;-58
2021/01/01 03:14:39;;;;;;;14.25;8.45;;;4.30;99.90;;;;;;5071571;28;20030;-59
2021/01/01 03:17:05;;;;;;;13.80;9.02;;;4.30;99.90;;;;;;5071112;28;20462;-58
2021/01/01 03:19:31;;;;;;;16.02;9.05;;;4.40;99.90;;;;;;5066540;28;20033;-60
2021/01/01 03:21:56;;;;;;;17.60;9.68;;;4.30;99.90;;;;;;5051414;28;20025;-61
2021/01/01 03:24:22;;;;;;;16.17;9.45;;;4.30;99.90;;;;;;5051805;28;20463;-61
2021/01/01 03:26:47;;;;;;;15.30;9.68;;;4.30;99.90;;;;;;5049888;28;20029;-63
2021/01/01 03:29:13;;;;;;;15.13;9.32;;;4.30;99.90;;;;;;5049787;28;20423;-59
2021/01/01 03:31:39;;;;;;;15.93;9.10;;;4.30;99.90;;;;;;5052021;28;20114;-58
2021/01/01 03:34:04;;;;;;;17.02;9.65;;;4.40;99.90;;;;;;5051661;28;20478;-60
2021/01/01 03:36:30;;;;;;;16.92;8.85;;;4.40;99.90;;;;;;5051347;28;20422;-58
2021/01/01 03:38:56;;;;;;;17.95;10.35;;;4.40;99.90;;;;;;5051279;28;20449;-59
2021/01/01 03:41:22;;;;;;;15.60;10.18;;;4.40;99.90;;;;;;5055250;28;20027;-60
2021/01/01 03:43:48;;;;;;;14.55;9.52;;;4.30;99.90;;;;;;5055608;28;20039;-64
2021/01/01 03:46:14;;;;;;;17.35;10.73;;;4.30;99.90;;;;;;5055921;28;20025;-60
2021/01/01 03:48:39;;;;;;;15.38;9.52;;;4.30;99.90;;;;;;5054759;28;20053;-59
2021/01/01 03:51:05;;;;;;;16.40;10.23;;;4.30;99.90;;;;;;5055851;28;20132;-64
2021/01/01 03:53:31;;;;;;;15.98;9.95;;;4.30;99.90;;;;;;5054736;28;20028;-60
2021/01/01 03:55:56;;;;;;;11.55;7.63;;;4.40;99.90;;;;;;5055725;28;20134;-66
2021/01/01 03:58:22;;;;;;;14.40;8.80;;;4.30;99.90;;;;;;5055574;28;20463;-60
2021/01/01 04:00:47;;;;;;;13.25;9.07;;;4.30;99.90;;;;;;5054751;28;20074;-59
2021/01/01 04:03:13;;;;;;;17.15;10.45;;;4.40;99.90;;;;;;5055323;28;20363;-60
2021/01/01 04:05:39;;;;;;;15.82;8.88;;;4.40;99.90;;;;;;5054728;28;20457;-59
2021/01/01 04:08:05;;;;;;;18.00;11.13;;;4.50;99.90;;;;;;5054725;28;20033;-60
2021/01/01 04:10:30;;;;;;;15.48;9.27;;;4.40;99.90;;;;;;5054588;28;20027;-61
2021/01/01 04:12:56;;;;;;;14.55;9.70;;;4.40;99.90;;;;;;5055763;28;20033;-58
2021/01/01 04:15:22;;;;;;;12.63;8.35;;;4.40;99.90;;;;;;5054703;28;20112;-61
2021/01/01 04:17:48;;;;;;;13.38;9.35;;;4.30;99.90;;;;;;5055334;28;20490;-59
2021/01/01 04:20:13;;;;;;;16.00;9.18;;;4.40;99.90;;;;;;5055033;28;20029;-58
2021/01/01 04:22:39;;;;;;;16.08;9.98;;;4.40;99.90;;;;;;5054314;28;20059;-60
2021/01/01 04:25:05;;;;;;;14.70;9.05;;;4.40;99.90;;;;;;5054940;28;20025;-59
2021/01/01 04:27:31;;;;;;;15.77;9.32;;;4.40;99.90;;;;;;5055332;28;20091;-60
2021/01/01 04:29:56;;;;;;;16.73;9.15;;;4.40;99.90;;;;;;5054022;28;20032;-59
2021/01/01 04:32:22;;;;;;;14.63;9.65;;;4.40;99.90;;;;;;5053713;28;20029;-63
2021/01/01 04:34:48;;;;;;;14.70;9.82;;;4.30;99.90;;;;;;5054154;28;20112;-59
2021/01/01 04:37:13;;;;;;;15.68;10.38;;;4.30;99.90;;;;;;5053434;28;20458;-58
2021/01/01 04:39:39;;;;;;;15.65;9.40;;;4.40;99.90;;;;;;5055117;28;20071;-61
2021/01/01 04:42:06;;;;;;;17.58;10.50;;;4.40;99.90;;;;;;5054751;28;20031;-59
2021/01/01 04:44:32;;;;;;;14.77;10.13;;;4.30;99.90;;;;;;5053637;28;20421;-60
2021/01/01 04:47:04;;;;;;;16.73;11.00;;;4.10;99.90;;;;;;5055082;28;20041;-60
2021/01/01 04:49:31;;;;;;;17.05;11.43;;;4.10;99.90;;;;;;5053553;28;20044;-60
2021/01/01 04:52:00;;;;;;;15.88;11.18;;;4.10;99.90;;;;;;5054334;28;20032;-60
2021/01/01 04:54:33;;;;;;;18.08;10.30;;;4.10;99.90;;;;;;5053702;28;20025;-60
2021/01/01 04:57:01;;;;;;;18.23;10.68;;;4.00;99.90;;;;;;5053701;28;20120;-70
2021/01/01 04:59:26;;;;;;;16.92;10.68;;;4.20;99.90;;;;;;5054997;28;20028;-61
2021/01/01 05:01:52;;;;;;;17.73;11.05;;;4.20;99.90;;;;;;5053572;28;20082;-60
2021/01/01 05:04:17;;;;;;;18.40;11.30;;;4.30;99.90;;;;;;5053836;28;20025;-64
2021/01/01 05:06:44;;;;;;;21.40;11.25;;;4.30;99.90;;;;;;5054764;28;20017;-59
2021/01/01 05:09:13;;;;;;;15.88;10.77;;;4.30;99.90;;;;;;5052878;28;20051;-61
2021/01/01 05:11:39;;;;;;;20.67;10.25;;;4.30;99.90;;;;;;5054685;28;20108;-61
2021/01/01 05:14:06;;;;;;;19.48;11.27;;;4.40;99.90;;;;;;5052671;28;20443;-60
2021/01/01 05:16:33;;;;;;;19.02;13.23;;;4.30;99.90;;;;;;5052819;28;20053;-58
2021/01/01 05:19:07;;;;;;;19.20;12.80;;;4.30;99.90;;;;;;5053355;28;20033;-60
2021/01/01 05:21:32;;;;;;;19.10;12.02;;;4.30;99.90;;;;;;5052967;28;20025;-60
2021/01/01 05:23:58;;;;;;;20.08;11.52;;;4.20;99.90;;;;;;5054309;28;20489;-57
2021/01/01 05:26:28;;;;;;;19.63;12.05;;;4.20;99.90;;;;;;5053713;28;20056;-60
2021/01/01 05:28:57;;;;;;;22.17;13.48;;;4.30;99.90;;;;;;5054508;28;20025;-66
2021/01/01 05:31:30;;;;;;;21.48;13.00;;;4.30;99.90;;;;;;5053246;28;20040;-59
2021/01/01 05:34:11;;;;;;;18.60;11.13;;;4.30;99.90;;;;;;5054217;28;20117;-62
2021/01/01 05:36:47;;;;;;;17.40;10.85;;;4.30;99.90;;;;;;5055951;28;20111;-66
2021/01/01 05:39:13;;;;;;;16.50;9.85;;;4.30;99.90;;;;;;5055674;28;20541;-61
2021/01/01 05:41:41;;;;;;;18.10;10.70;;;4.30;99.90;;;;;;5054517;28;20102;-60
2021/01/01 05:44:20;;;;;;;17.50;9.77;;;4.30;99.90;;;;;;5052704;28;20108;-66
2021/01/01 05:47:05;;;;;;;14.00;9.23;;;4.40;99.90;;;;;;5052421;28;20078;-59
2021/01/01 05:49:37;;;;;;;16.80;10.70;;;4.40;99.90;;;;;;5052485;28;20474;-60
2021/01/01 05:52:18;;;;;;;16.55;9.38;;;4.30;99.90;;;;;;5052214;28;20033;-70
2021/01/01 05:54:46;;;;;;;24.52;11.57;;;4.40;99.90;;;;;;5052574;28;20037;-58
2021/01/01 05:57:13;;;;;;;21.15;11.32;;;4.40;99.90;;;;;;5051644;28;20086;-59
2021/01/01 05:59:40;;;;;;;23.10;12.60;;;4.40;99.90;;;;;;5053599;28;20021;-63
2021/01/01 06:02:10;;;;;;;19.70;11.13;;;4.30;99.90;;;;;;5053195;28;20091;-60
2021/01/01 06:04:37;;;;;;;19.45;11.48;;;4.20;99.90;;;;;;5051582;28;20605;-66
2021/01/01 06:07:05;;;;;;;17.58;9.80;;;4.20;99.90;;;;;;5052494;28;20032;-60
2021/01/01 06:09:33;;;;;;;16.13;9.85;;;4.30;99.90;;;;;;5053605;28;20029;-66
2021/01/01 06:12:03;;;;;;;19.23;11.57;;;4.30;99.90;;;;;;5053370;28;20021;-64
2021/01/01 06:14:30;;;;;;;17.65;11.65;;;4.20;99.90;;;;;;5053628;28;20025;-68
2021/01/01 06:17:09;;;;;;;19.05;11.77;;;4.20;99.90;;;;;;5052413;28;20083;-59
2021/01/01 06:19:44;;;;;;;18.35;10.38;;;4.30;99.90;;;;;;5053567;28;20059;-63
2021/01/01 06:22:19;;;;;;;19.70;12.05;;;4.20;99.90;;;;;;5051627;28;20064;-59
2021/01/01 06:24:56;;;;;;;18.75;10.63;;;4.40;99.90;;;;;;5053565;28;20079;-60
2021/01/01 06:27:24;;;;;;;18.95;11.38;;;4.20;99.90;;;;;;5052720;28;20044;-60
2021/01/01 06:29:58;;;;;;;18.42;10.20;;;4.20;99.90;;;;;;5051835;28;20063;-60
2021/01/01 06:32:24;;;;;;;17.58;10.40;;;4.30;99.90;;;;;;5051207;28;20049;-58
2021/01/01 06:34:51;;;;;;;19.00;12.55;;;4.40;99.90;;;;;;5051537;28;20029;-59
2021/01/01 06:37:37;;;;;;;18.17;11.95;;;4.40;99.90;;;;;;5051056;28;20033;-59
2021/01/01 06:40:05;;;;;;;18.88;12.13;;;4.40;99.90;;;;;;5051488;28;20031;-58
2021/01/01 06:42:57;;;;;;;20.50;12.98;;;4.30;99.90;;;;;;5053173;28;20072;-59
2021/01/01 06:45:44;;;;;;;19.35;12.13;;;4.40;99.90;;;;;;5052245;28;20036;-59
2021/01/01 06:48:29;;;;;;;21.00;11.85;;;4.40;99.90;;;;;;5050441;28;20179;-59
2021/01/01 06:50:55;;;;;;;26.05;13.77;;;4.40;99.90;;;;;;5052607;28;20032;-59
2021/01/01 06:53:28;;;;;;;23.73;13.60;;;4.60;99.90;;;;;;5052130;28;20104;-60
2021/01/01 06:56:10;;;;;;;23.23;13.82;;;4.50;99.90;;;;;;5052186;28;20486;-59
2021/01/01 06:58:36;;;;;;;25.70;14.13;;;4.50;99.90;;;;;;5052761;28;20032;-58
2021/01/01 07:01:02;;;;;;;21.00;12.93;;;4.40;99.90;;;;;;5051620;28;20123;-58
2021/01/01 07:03:38;;;;;;;21.02;13.27;;;4.50;99.90;;;;;;5053348;28;20040;-59
2021/01/01 07:06:04;;;;;;;25.83;14.07;;;4.50;99.90;;;;;;5051910;28;20032;-63
2021/01/01 07:08:42;;;;;;;18.20;12.10;;;4.50;99.90;;;;;;5052200;28;20033;-57
2021/01/01 07:11:10;;;;;;;20.38;12.23;;;4.50;99.90;;;;;;5052548;28;20052;-67
2021/01/01 07:13:47;;;;;;;22.20;13.48;;;4.50;99.90;;;;;;5051205;28;20370;-58
2021/01/01 07:16:14;;;;;;;20.40;12.90;;;4.60;99.90;;;;;;5054899;28;20108;-59
2021/01/01 07:18:40;;;;;;;17.58;11.73;;;4.60;99.90;;;;;;5056525;28;20036;-58
2021/01/01 07:21:08;;;;;;;27.27;12.90;;;4.50;99.90;;;;;;5055154;28;20062;-58
2021/01/01 07:23:34;;;;;;;21.92;13.20;;;4.60;99.90;;;;;;5056449;28;20032;-59
2021/01/01 07:26:00;;;;;;;17.33;12.02;;;4.50;99.90;;;;;;5055074;28;20028;-59
2021/01/01 07:28:27;;;;;;;21.23;12.85;;;4.50;99.90;;;;;;5054151;28;20123;-58
2021/01/01 07:30:53;;;;;;;18.15;11.27;;;4.50;99.90;;;;;;5056381;28;20160;-58
2021/01/01 07:33:29;;;;;;;21.42;13.48;;;4.50;99.90;;;;;;5054398;28;20112;-59
2021/01/01 07:35:58;;;;;;;16.08;10.13;;;4.60;99.90;;;;;;5056335;28;20029;-62
2021/01/01 07:38:25;;;;;;;16.15;9.85;;;4.50;99.90;;;;;;5054378;28;20029;-61
2021/01/01 07:40:52;;;;;;;18.85;11.18;;;4.40;99.90;;;;;;5055015;28;20024;-57
2021/01/01 07:43:18;;;;;;;15.63;9.95;;;4.50;99.90;;;;;;5054278;28;20035;-58
2021/01/01 07:45:43;;;;;;;14.98;9.48;;;4.50;99.90;;;;;;5054438;28;20480;-60
2021/01/01 07:48:10;;;;;;;14.85;9.70;;;4.60;99.90;;;;;;5054292;28;20061;-68
2021/01/01 07:50:37;;;;;;;17.73;11.98;;;4.50;99.90;;;;;;5054822;28;20104;-59
2021/01/01 07:53:08;;;;;;;15.30;9.23;;;4.60;99.90;;;;;;5055670;28;20018;-59
2021/01/01 07:55:35;;;;;;;14.33;8.73;;;4.60;99.90;;;;;;5055143;28;20453;-58
2021/01/01 07:58:10;;;;;;;14.75;9.90;;;4.70;99.90;;;;;;5055943;28;20032;-59
2021/01/01 08:00:41;;;;;;;15.82;9.80;;;4.50;99.90;;;;;;5055876;28;20029;-59
2021/01/01 08:03:08;;;;;;;12.68;8.20;;;4.50;99.90;;;;;;5056200;28;20071;-58
2021/01/01 08:05:34;;;;;;;14.18;9.13;;;4.60;99.90;;;;;;5055164;28;20028;-59
2021/01/01 08:08:17;;;;;;;12.30;8.35;;;4.60;99.90;;;;;;5054207;28;20029;-60
2021/01/01 08:10:48;;;;;;;10.77;7.63;;;4.60;99.90;;;;;;5054299;28;20540;-59
2021/01/01 08:13:24;;;;;;;13.85;8.90;;;4.60;99.90;;;;;;5053610;28;20021;-60
2021/01/01 08:15:53;;;;;;;12.60;7.90;;;4.70;99.90;;;;;;5055529;28;20033;-59
2021/01/01 08:18:26;;;;;;;16.58;9.82;;;4.80;99.90;;;;;;5053647;28;20127;-59
2021/01/01 08:21:00;;;;;;;11.18;7.38;;;4.80;99.90;;;;;;5055532;28;20017;-59
2021/01/01 08:23:28;;;;;;;14.20;8.48;;;4.80;99.90;;;;;;5054836;28;20107;-58
2021/01/01 08:25:55;;;;;;;14.02;9.05;;;4.90;99.90;;;;;;5054265;28;20027;-58
2021/01/01 08:28:29;;;;;;;13.95;8.23;;;4.90;99.90;;;;;;5053648;28;20359;-60
2021/01/01 08:31:05;;;;;;;11.82;7.75;;;4.90;99.90;;;;;;5055596;28;20482;-59
2021/01/01 08:33:42;;;;;;;14.38;9.38;;;5.00;99.90;;;;;;5053520;28;20021;-60
2021/01/01 08:36:10;;;;;;;15.00;8.40;;;5.10;99.90;;;;;;5054302;28;20037;-60
2021/01/01 08:38:37;;;;;;;12.07;7.03;;;5.20;99.90;;;;;;5055788;28;20025;-64
2021/01/01 08:41:04;;;;;;;13.05;8.55;;;5.20;99.90;;;;;;5055238;28;20039;-60
2021/01/01 08:43:30;;;;;;;11.48;7.93;;;5.30;99.90;;;;;;5054776;28;20520;-58
2021/01/01 08:45:56;;;;;;;16.42;8.38;;;5.30;99.90;;;;;;5055272;28;20064;-63
2021/01/01 08:48:28;;;;;;;13.52;8.57;;;5.50;99.90;;;;;;5053997;28;20057;-58
2021/01/01 08:50:54;;;;;;;;;;;5.40;99.90;;;;;;5054249;28;20021;-58
2021/01/01 08:53:20;;;;;;;16.95;10.07;;;5.60;99.90;;;;;;5052885;28;20380;-58
2021/01/01 08:56:00;;;;;;;15.77;9.43;;;5.30;99.90;;;;;;5054598;28;20384;-58
2021/01/01 08:58:26;;;;;;;18.30;11.15;;;5.70;99.90;;;;;;5052747;28;20116;-61
2021/01/01 09:00:52;;;;;;;16.17;10.27;;;5.60;99.90;;;;;;5053524;28;20067;-58
2021/01/01 09:03:22;;;;;;;19.13;12.27;;;6.10;99.90;;;;;;5052846;28;20053;-58
2021/01/01 09:05:54;;;;;;;14.43;9.27;;;6.20;99.90;;;;;;5053372;28;20060;-58
2021/01/01 09:08:23;;;;;;;;;;;6.50;99.90;;;;;;5053039;28;20033;-59
2021/01/01 09:10:52;;;;;;;16.85;10.18;;;5.90;99.90;;;;;;5054241;28;19958;-58
2021/01/01 09:13:26;;;;;;;17.90;10.70;;;5.60;99.90;;;;;;5052292;28;20071;-60
2021/01/01 09:16:02;;;;;;;19.45;11.45;;;5.60;99.90;;;;;;5054338;28;20032;-58
2021/01/01 09:18:28;;;;;;;17.90;10.30;;;5.60;99.90;;;;;;5053879;28;20033;-59
2021/01/01 09:21:14;;;;;;;17.20;10.80;;;5.80;99.90;;;;;;5053094;28;20020;-59
2021/01/01 09:23:41;;;;;;;14.55;9.35;;;5.80;99.90;;;;;;5053760;28;20038;-59
2021/01/01 09:26:07;;;;;;;18.00;11.10;;;6.10;99.90;;;;;;5053035;28;20021;-60
2021/01/01 09:28:34;;;;;;;16.17;9.75;;;6.20;99.90;;;;;;5053627;28;20041;-59
2021/01/01 09:31:00;;;;;;;11.98;8.77;;;6.20;99.90;;;;;;5053052;28;20113;-59
2021/01/01 09:33:25;;;;;;;15.30;9.30;;;6.40;99.90;;;;;;5052265;28;20044;-58
2021/01/01 09:35:51;;;;;;;15.05;8.00;;;6.30;99.90;;;;;;5052799;28;20458;-58
2021/01/01 09:38:17;;;;;;;15.60;7.57;;;6.60;99.90;;;;;;5051995;28;20359;-59
2021/01/01 09:40:43;;;;;;;14.57;8.77;;;6.80;99.90;;;;;;5052694;28;20083;-59
2021/01/01 09:43:09;;;;;;;14.88;8.85;;;6.50;99.90;;;;;;5053657;28;20025;-62
2021/01/01 09:45:36;;;;;;;12.82;8.55;;;6.30;99.90;;;;;;5052027;28;20025;-59
2021/01/01 09:48:02;;;;;;;14.02;9.15;;;6.30;99.90;;;;;;5053521;28;20044;-62
2021/01/01 09:50:28;;;;;;;14.15;9.02;;;6.20;99.90;;;;;;5052176;28;20025;-58
2021/01/01 09:52:54;;;;;;;15.35;9.77;;;6.10;99.90;;;;;;5052954;28;20175;-58
2021/01/01 09:55:20;;;;;;;13.18;9.18;;;6.00;99.90;;;;;;5054032;28;20374;-64
2021/01/01 09:57:47;;;;;;;15.18;9.80;;;6.10;99.90;;;;;;5054725;28;20029;-58
2021/01/01 10:00:15;;;;;;;13.65;9.02;;;6.00;99.90;;;;;;5053581;28;20035;-60
2021/01/01 10:02:41;;;;;;;13.65;8.93;;;5.80;99.90;;;;;;5054210;28;20474;-61
2021/01/01 10:05:08;;;;;;;20.42;12.35;;;5.90;99.90;;;;;;5054917;28;20108;-61
2021/01/01 10:07:34;;;;;;;15.52;10.05;;;5.90;99.90;;;;;;5054205;28;20033;-60
2021/01/01 10:10:01;;;;;;;19.92;11.15;;;5.70;99.90;;;;;;5053994;28;20033;-61
2021/01/01 10:12:26;;;;;;;20.40;12.50;;;5.50;99.90;;;;;;5052013;28;20021;-64
2021/01/01 10:14:57;;;;;;;17.10;11.75;;;5.30;99.90;;;;;;5053680;28;20025;-61
2021/01/01 10:17:23;;;;;;;18.60;11.45;;;5.10;99.90;;;;;;5052114;28;20040;-61
2021/01/01 10:19:49;;;;;;;20.55;12.10;;;5.10;99.90;;;;;;5054434;28;20029;-59
2021/01/01 10:22:15;;;;;;;21.20;11.75;;;4.80;99.90;;;;;;5052800;28;20070;-60
2021/01/01 10:24:44;;;;;;;16.23;10.43;;;4.70;99.90;;;;;;5053581;28;20029;-59
2021/01/01 10:27:10;;;;;;;18.35;11.52;;;4.80;99.90;;;;;;5053889;28;20082;-62
2021/01/01 10:29:36;;;;;;;18.60;10.98;;;4.80;99.90;;;;;;5052961;28;20036;-64
2021/01/01 10:32:08;;;;;;;17.38;10.57;;;4.90;99.90;;;;;;5053310;28;20025;-61
2021/01/01 10:34:34;;;;;;;16.50;10.35;;;5.00;99.90;;;;;;5052508;28;20096;-61
2021/01/01 10:36:59;;;;;;;20.85;11.75;;;4.80;99.90;;;;;;5051540;28;20020;-61
2021/01/01 10:39:26;;;;;;;19.10;11.43;;;4.70;99.90;;;;;;5052136;28;20098;-61
2021/01/01 10:41:51;;;;;;;18.95;11.20;;;4.80;99.90;;;;;;5050977;28;20035;-62
2021/01/01 10:44:18;;;;;;;15.40;9.98;;;4.80;99.90;;;;;;5052531;28;20032;-61
2021/01/01 10:46:49;;;;;;;11.85;7.82;;;5.00;99.90;;;;;;5050585;28;20111;-62
2021/01/01 10:49:14;;;;;;;14.75;9.32;;;5.00;99.90;;;;;;5051718;28;20548;-60
2021/01/01 10:51:40;;;;;;;14.23;9.90;;;5.00;99.90;;;;;;5051943;28;20314;-59
2021/01/01 10:54:06;;;;;;;13.48;8.65;;;5.00;99.90;;;;;;5052242;28;20037;-61
2021/01/01 10:56:32;;;;;;;15.10;10.15;;;5.00;99.90;;;;;;5051360;28;20029;-60
2021/01/01 10:58:57;;;;;;;15.13;10.38;;;5.00;99.90;;;;;;5051160;28;20064;-62
2021/01/01 11:01:24;;;;;;;15.93;9.95;;;4.90;99.90;;;;;;5053060;28;20025;-60
2021/01/01 11:03:51;;;;;;;17.70;10.65;;;4.90;99.90;;;;;;5052642;28;20064;-60
2021/01/01 11:06:18;;;;;;;16.58;10.02;;;5.00;99.90;;;;;;5051423;28;20085;-58
2021/01/01 11:08:46;;;;;;;16.70;10.32;;;5.00;99.90;;;;;;5050465;28;20032;-62
2021/01/01 11:11:13;;;;;;;20.05;11.02;;;4.90;99.90;;;;;;5050032;28;20055;-61
2021/01/01 11:14:09;;;;;;;15.60;9.45;;;4.90;99.90;;;;;;5049169;28;20415;-58
2021/01/01 12:25:37;;;;;;;;;;;5.40;99.90;;;;;;5032401;28;20446;-60
2021/01/01 12:28:04;;;;;;;9.73;5.63;;;5.30;99.90;;;;;;5049410;28;19912;-59
2021/01/01 12:30:32;;;;;;;8.55;6.13;;;5.40;99.90;;;;;;5054894;28;20127;-59
2021/01/01 12:32:59;;;;;;;7.43;5.65;;;5.40;99.90;;;;;;5053855;28;20432;-59
2021/01/01 12:35:26;;;;;;;7.32;5.32;;;5.40;99.90;;;;;;5055142;28;20025;-67
2021/01/01 12:37:59;;;;;;;7.05;5.78;;;5.40;99.90;;;;;;5055165;28;20454;-58
2021/01/01 12:40:26;;;;;;;11.95;8.65;;;5.40;99.90;;;;;;5054876;28;20021;-61
2021/01/01 12:42:52;;;;;;;8.70;6.43;;;5.30;99.90;;;;;;5053836;28;20024;-60
2021/01/01 12:45:18;;;;;;;8.70;6.47;;;5.40;99.90;;;;;;5053874;28;20356;-59
2021/01/01 12:47:43;;;;;;;6.95;4.82;;;5.50;99.90;;;;;;5052458;28;20053;-59
2021/01/01 12:50:10;;;;;;;7.75;5.13;;;5.50;99.90;;;;;;5053671;28;20029;-60
2021/01/01 12:52:35;;;;;;;7.93;5.15;;;5.50;99.90;;;;;;5052722;28;20120;-59
2021/01/01 12:55:01;;;;;;;7.28;5.43;;;5.60;99.90;;;;;;5054976;28;20130;-58
2021/01/01 12:57:27;;;;;;;7.55;5.15;;;5.50;99.90;;;;;;5053384;28;20060;-68
2021/01/01 12:59:52;;;;;;;6.82;5.18;;;5.50;99.90;;;;;;5053404;28;20025;-60
2021/01/01 13:02:18;;;;;;;8.27;6.00;;;5.50;99.90;;;;;;5036911;28;20029;-59
2021/01/01 13:04:44;;;;;;;8.80;5.63;;;5.50;99.90;;;;;;5052743;28;20021;-59
2021/01/01 13:07:09;;;;;;;9.70;6.35;;;5.50;99.90;;;;;;5054506;28;20108;-60
2021/01/01 13:09:35;;;;;;;8.20;5.57;;;5.60;99.90;;;;;;5053883;28;20528;-60
2021/01/01 13:12:01;;;;;;;7.13;5.40;;;5.60;99.90;;;;;;5054529;28;20025;-58
2021/01/01 13:14:26;;;;;;;10.88;8.10;;;5.60;99.90;;;;;;5052598;28;20029;-61
2021/01/01 13:16:54;;;;;;;10.98;5.85;;;5.50;99.90;;;;;;5054192;28;20024;-60
2021/01/01 13:19:20;;;;;;;8.93;6.68;;;5.50;99.90;;;;;;5054576;28;20033;-59
2021/01/01 13:21:46;;;;;;;9.35;6.63;;;5.60;99.90;;;;;;5052412;28;20024;-58
2021/01/01 13:24:11;;;;;;;6.75;5.07;;;5.60;99.90;;;;;;5053911;28;20105;-61
2021/01/01 13:26:37;;;;;;;7.03;4.75;;;5.70;99.90;;;;;;5053710;28;20024;-59
2021/01/01 13:29:04;;;;;;;8.90;5.55;;;5.50;99.90;;;;;;5054154;28;20033;-59
2021/01/01 13:31:40;;;;;;;6.78;5.50;;;5.60;99.90;;;;;;5052313;28;20108;-62
2021/01/01 13:34:08;;;;;;;6.80;5.65;;;5.70;99.90;;;;;;5053054;28;20021;-59
2021/01/01 13:36:35;;;;;;;7.20;5.30;;;5.70;99.90;;;;;;5053124;28;20021;-58
2021/01/01 13:39:01;;;;;;;5.20;4.10;;;5.70;99.90;;;;;;5052607;28;20040;-60
2021/01/01 13:41:26;;;;;;;5.72;4.80;;;5.70;99.90;;;;;;5053905;28;20037;-60
2021/01/01 13:43:53;;;;;;;6.43;4.72;;;5.70;99.90;;;;;;5051561;28;20029;-59
2021/01/01 13:46:29;;;;;;;8.52;5.40;;;5.70;99.90;;;;;;5052489;28;20035;-63
2021/01/01 13:48:56;;;;;;;6.53;5.35;;;5.60;99.90;;;;;;5051802;28;20480;-59
2021/01/01 13:51:30;;;;;;;7.10;4.68;;;5.70;99.90;;;;;;5051799;28;20090;-59
2021/01/01 13:53:56;;;;;;;6.07;4.35;;;5.80;99.90;;;;;;5052132;28;20455;-59
2021/01/01 13:56:22;;;;;;;7.70;5.35;;;5.70;99.90;;;;;;5052197;28;20072;-59